createdAt,value
2018-11-01T00:00:52.195Z,99.99
2018-11-01T00:01:52.185Z,99.99
2018-11-01T00:03:52.145Z,99.99
2018-11-01T00:04:52.124Z,99.99
2018-11-01T00:05:52.102Z,99.99
2018-11-01T00:06:52.093Z,99.99
2018-11-01T00:07:52.068Z,99.99
2018-11-01T00:08:52.047Z,99.99
2018-11-01T00:09:52.039Z,99.99
2018-11-01T00:10:52.014Z,99.99
2018-11-01T00:11:51.996Z,99.99
2018-11-01T00:12:51.977Z,99.99
2018-11-01T00:13:51.960Z,99.99
2018-11-01T00:14:51.944Z,99.99
2018-11-01T00:15:51.924Z,99.99
2018-11-01T00:16:51.908Z,99.99
2018-11-01T00:17:51.892Z,99.99
2018-11-01T00:18:51.872Z,99.99
2018-11-01T00:19:51.856Z,99.99
2018-11-01T00:20:51.841Z,99.99
2018-11-01T00:21:51.818Z,99.99
2018-11-01T00:22:51.802Z,99.99
2018-11-01T00:23:51.784Z,99.99
2018-11-01T00:24:51.765Z,99.99
2018-11-01T00:25:51.749Z,99.99
2018-11-01T00:26:51.730Z,99.99
2018-11-01T00:27:51.712Z,99.99
2018-11-01T00:28:51.692Z,99.99
2018-11-01T00:29:51.676Z,99.99
2018-11-01T00:30:51.672Z,99.99
2018-11-01T00:31:51.640Z,99.99
2018-11-01T00:32:51.622Z,99.99
2018-11-01T00:33:51.603Z,99.99
2018-11-01T00:34:51.585Z,99.99
2018-11-01T00:35:51.569Z,99.99
2018-11-01T00:36:51.549Z,99.99
2018-11-01T00:37:51.532Z,99.99
2018-11-01T00:38:51.525Z,99.99
2018-11-01T00:39:51.498Z,99.99
2018-11-01T00:40:51.485Z,99.99
2018-11-01T00:41:51.463Z,99.99
2018-11-01T00:42:51.446Z,99.99
2018-11-01T00:43:51.427Z,99.99
2018-11-01T00:44:51.406Z,99.99
2018-11-01T00:45:51.396Z,99.99
2018-11-01T00:46:51.371Z,99.99
2018-11-01T00:47:51.352Z,99.99
2018-11-01T00:48:51.332Z,99.99
2018-11-01T00:49:51.316Z,99.99
2018-11-01T00:50:51.299Z,99.99
2018-11-01T00:51:51.278Z,99.99
2018-11-01T00:52:51.264Z,99.99
2018-11-01T00:53:51.244Z,99.99
2018-11-01T00:54:51.234Z,99.99
2018-11-01T00:55:51.208Z,99.99
2018-11-01T00:56:51.190Z,99.99
2018-11-01T00:57:51.175Z,99.99
2018-11-01T00:58:51.158Z,99.99
2018-11-01T00:59:51.136Z,99.99
2018-11-01T01:00:51.117Z,99.99
2018-11-01T01:01:51.104Z,99.99
2018-11-01T01:02:51.086Z,99.99
2018-11-01T01:03:51.064Z,99.99
2018-11-01T01:04:51.047Z,99.99
2018-11-01T01:05:51.037Z,99.99
2018-11-01T01:06:51.020Z,99.99
2018-11-01T01:07:50.990Z,99.99
2018-11-01T01:08:50.979Z,99.99
2018-11-01T01:09:50.963Z,99.99
2018-11-01T01:10:50.939Z,99.99
2018-11-01T01:11:50.918Z,99.99
2018-11-01T01:12:50.903Z,99.99
2018-11-01T01:13:50.881Z,99.99
2018-11-01T01:14:50.865Z,99.99
2018-11-01T01:15:50.847Z,99.99
2018-11-01T01:16:50.829Z,99.99
2018-11-01T01:17:50.812Z,99.99
2018-11-01T01:18:50.813Z,99.99
2018-11-01T01:19:50.775Z,99.99
2018-11-01T01:20:50.760Z,99.99
2018-11-01T01:21:50.737Z,99.99
2018-11-01T01:22:50.723Z,99.99
2018-11-01T01:23:50.699Z,99.99
2018-11-01T01:24:50.683Z,99.99
2018-11-01T01:25:50.665Z,99.99
2018-11-01T01:26:50.649Z,99.99
2018-11-01T01:27:50.629Z,99.99
2018-11-01T01:28:50.612Z,99.99
2018-11-01T01:29:50.592Z,99.99
2018-11-01T01:30:50.576Z,99.99
2018-11-01T01:31:50.555Z,99.99
2018-11-01T01:32:50.541Z,99.99
2018-11-01T01:33:50.521Z,99.99
2018-11-01T01:34:50.501Z,99.99
2018-11-01T01:35:50.482Z,99.99
2018-11-01T01:36:50.467Z,99.99
2018-11-01T01:37:50.448Z,99.85
2018-11-01T01:38:50.427Z,99.75
2018-11-01T01:39:50.410Z,99.51
2018-11-01T01:40:50.391Z,99.56
2018-11-01T01:41:50.373Z,98.90
2018-11-01T01:42:50.356Z,97.75
2018-11-01T01:43:50.336Z,98.13
2018-11-01T01:44:50.319Z,97.66
2018-11-01T01:45:50.301Z,98.03
2018-11-01T01:46:50.294Z,97.85
2018-11-01T01:47:50.263Z,97.56
2018-11-01T01:48:50.249Z,98.03
2018-11-01T01:49:50.227Z,97.08
2018-11-01T01:50:50.265Z,97.08
2018-11-01T01:51:50.190Z,97.08
2018-11-01T01:52:50.180Z,97.37
2018-11-01T01:53:50.155Z,97.27
2018-11-01T01:54:50.134Z,98.13
2018-11-01T01:55:50.121Z,97.17
2018-11-01T01:56:50.099Z,97.08
2018-11-01T01:57:50.082Z,96.32
2018-11-01T01:58:50.067Z,95.94
2018-11-01T01:59:50.048Z,95.84
2018-11-01T02:00:50.030Z,95.84
2018-11-01T02:01:50.009Z,96.41
2018-11-01T02:02:50.001Z,96.13
2018-11-01T02:03:49.984Z,95.94
2018-11-01T02:04:49.956Z,95.84
2018-11-01T02:05:49.942Z,95.65
2018-11-01T02:06:49.923Z,95.17
2018-11-01T02:07:49.901Z,94.70
2018-11-01T02:08:49.895Z,94.60
2018-11-01T02:09:49.865Z,94.89
2018-11-01T02:10:49.846Z,94.41
2018-11-01T02:11:49.871Z,94.41
2018-11-01T02:12:49.817Z,94.51
2018-11-01T02:13:49.797Z,94.22
2018-11-01T02:14:49.772Z,93.93
2018-11-01T02:15:49.756Z,93.74
2018-11-01T02:16:49.738Z,93.65
2018-11-01T02:17:49.721Z,93.36
2018-11-01T02:18:49.700Z,93.74
2018-11-01T02:19:49.682Z,94.12
2018-11-01T02:20:49.663Z,93.65
2018-11-01T02:21:49.657Z,93.65
2018-11-01T02:22:49.630Z,93.46
2018-11-01T02:23:49.610Z,93.55
2018-11-01T02:24:49.592Z,93.46
2018-11-01T02:25:49.576Z,93.65
2018-11-01T02:26:49.560Z,93.46
2018-11-01T02:27:49.537Z,93.17
2018-11-01T02:28:49.528Z,93.74
2018-11-01T02:29:49.500Z,93.36
2018-11-01T02:30:49.483Z,93.17
2018-11-01T02:31:49.465Z,93.08
2018-11-01T02:32:49.446Z,92.98
2018-11-01T02:33:49.428Z,92.60
2018-11-01T02:34:49.415Z,92.69
2018-11-01T02:35:49.394Z,91.93
2018-11-01T02:36:49.375Z,91.55
2018-11-01T02:37:49.477Z,92.22
2018-11-01T02:38:49.458Z,91.27
2018-11-01T02:39:49.321Z,91.55
2018-11-01T02:40:49.301Z,92.03
2018-11-01T02:41:49.286Z,91.55
2018-11-01T02:42:49.266Z,91.46
2018-11-01T02:43:49.245Z,91.74
2018-11-01T02:44:49.228Z,92.12
2018-11-01T02:45:49.211Z,92.22
2018-11-01T02:46:49.193Z,91.83
2018-11-01T02:47:49.186Z,92.50
2018-11-01T02:48:49.156Z,92.60
2018-11-01T02:49:49.139Z,92.69
2018-11-01T02:50:49.120Z,92.50
2018-11-01T02:51:49.101Z,92.69
2018-11-01T02:52:49.083Z,92.88
2018-11-01T02:53:49.064Z,93.27
2018-11-01T02:54:49.050Z,93.08
2018-11-01T02:55:49.033Z,92.98
2018-11-01T02:56:49.014Z,92.79
2018-11-01T02:57:48.993Z,93.17
2018-11-01T02:58:48.977Z,93.36
2018-11-01T02:59:49.091Z,93.55
2018-11-01T03:00:48.940Z,93.27
2018-11-01T03:01:48.920Z,93.08
2018-11-01T03:02:48.908Z,93.65
2018-11-01T03:03:48.889Z,93.17
2018-11-01T03:04:48.869Z,93.27
2018-11-01T03:05:48.849Z,93.55
2018-11-01T03:06:48.835Z,93.36
2018-11-01T03:07:48.811Z,93.84
2018-11-01T03:08:48.800Z,93.84
2018-11-01T03:09:48.775Z,93.98
2018-11-01T03:10:48.758Z,94.46
2018-11-01T03:11:48.747Z,94.70
2018-11-01T03:12:48.721Z,94.37
2018-11-01T03:13:48.702Z,94.84
2018-11-01T03:14:48.684Z,94.79
2018-11-01T03:15:48.663Z,94.46
2018-11-01T03:16:48.692Z,94.65
2018-11-01T03:17:48.628Z,94.65
2018-11-01T03:18:48.616Z,94.56
2018-11-01T03:19:48.593Z,94.56
2018-11-01T03:20:48.572Z,95.22
2018-11-01T03:21:48.555Z,95.22
2018-11-01T03:22:48.543Z,95.03
2018-11-01T03:23:48.522Z,95.70
2018-11-01T03:24:48.504Z,94.84
2018-11-01T03:25:48.487Z,95.41
2018-11-01T03:26:48.464Z,95.61
2018-11-01T03:27:48.447Z,95.32
2018-11-01T03:28:48.427Z,95.51
2018-11-01T03:29:48.410Z,95.41
2018-11-01T03:30:48.391Z,95.79
2018-11-01T03:31:48.376Z,95.89
2018-11-01T03:32:48.368Z,95.70
2018-11-01T03:33:48.339Z,96.17
2018-11-01T03:34:48.317Z,95.89
2018-11-01T03:35:48.302Z,96.27
2018-11-01T03:36:48.282Z,96.84
2018-11-01T03:37:48.263Z,96.84
2018-11-01T03:38:48.295Z,97.22
2018-11-01T03:39:48.228Z,96.65
2018-11-01T03:40:48.213Z,97.13
2018-11-01T03:41:48.189Z,97.13
2018-11-01T03:42:48.170Z,97.41
2018-11-01T03:43:48.154Z,97.22
2018-11-01T03:44:48.132Z,96.89
2018-11-01T03:45:48.179Z,97.03
2018-11-01T03:46:48.109Z,97.22
2018-11-01T03:47:48.079Z,96.84
2018-11-01T03:48:48.061Z,97.03
2018-11-01T03:49:48.041Z,97.41
2018-11-01T03:50:48.022Z,98.03
2018-11-01T03:51:48.011Z,97.56
2018-11-01T03:52:47.985Z,97.46
2018-11-01T03:53:47.986Z,97.27
2018-11-01T03:54:47.949Z,98.22
2018-11-01T03:55:47.927Z,98.13
2018-11-01T03:56:47.917Z,98.51
2018-11-01T03:57:47.893Z,98.89
2018-11-01T03:58:47.873Z,98.70
2018-11-01T03:59:47.860Z,98.89
2018-11-01T04:00:47.835Z,99.55
2018-11-01T04:01:47.823Z,99.46
2018-11-01T04:02:47.805Z,99.27
2018-11-01T04:03:47.898Z,99.27
2018-11-01T04:04:47.765Z,99.37
2018-11-01T04:05:47.746Z,99.65
2018-11-01T04:06:47.728Z,99.46
2018-11-01T04:07:47.706Z,99.55
2018-11-01T04:08:47.702Z,99.37
2018-11-01T04:09:47.671Z,98.89
2018-11-01T04:10:47.654Z,99.46
2018-11-01T04:11:47.638Z,98.60
2018-11-01T04:12:47.613Z,98.32
2018-11-01T04:13:47.615Z,98.41
2018-11-01T04:14:47.588Z,98.13
2018-11-01T04:15:47.559Z,97.94
2018-11-01T04:16:47.643Z,97.84
2018-11-01T04:17:47.521Z,97.65
2018-11-01T04:18:47.503Z,98.13
2018-11-01T04:19:47.489Z,98.03
2018-11-01T04:20:47.465Z,98.03
2018-11-01T04:21:47.450Z,98.79
2018-11-01T04:22:47.427Z,98.89
2018-11-01T04:23:47.408Z,99.55
2018-11-01T04:24:47.389Z,98.60
2018-11-01T04:25:47.371Z,98.99
2018-11-01T04:26:47.354Z,98.32
2018-11-01T04:27:47.405Z,97.94
2018-11-01T04:28:47.335Z,98.41
2018-11-01T04:29:47.296Z,98.70
2018-11-01T04:30:47.283Z,98.51
2018-11-01T04:31:47.256Z,98.60
2018-11-01T04:32:47.239Z,98.70
2018-11-01T04:33:47.300Z,98.79
2018-11-01T04:34:47.208Z,98.70
2018-11-01T04:35:47.197Z,98.60
2018-11-01T04:36:47.165Z,98.51
2018-11-01T04:37:47.149Z,98.99
2018-11-01T04:38:47.133Z,98.70
2018-11-01T04:39:47.107Z,98.89
2018-11-01T04:40:47.205Z,98.70
2018-11-01T04:41:47.071Z,98.65
2018-11-01T04:42:47.052Z,99.08
2018-11-01T04:43:47.034Z,98.32
2018-11-01T04:44:47.021Z,98.03
2018-11-01T04:45:47.004Z,98.03
2018-11-01T04:46:46.985Z,97.27
2018-11-01T04:47:47.127Z,97.56
2018-11-01T04:48:46.942Z,97.75
2018-11-01T04:49:46.925Z,98.18
2018-11-01T04:50:46.903Z,98.03
2018-11-01T04:51:46.888Z,97.84
2018-11-01T04:52:46.865Z,97.65
2018-11-01T04:53:46.846Z,98.03
2018-11-01T04:54:46.831Z,98.32
2018-11-01T04:55:46.810Z,98.32
2018-11-01T04:56:46.793Z,99.03
2018-11-01T04:57:46.770Z,98.60
2018-11-01T04:58:46.754Z,98.13
2018-11-01T04:59:46.732Z,98.03
2018-11-01T05:00:46.722Z,98.03
2018-11-01T05:01:46.696Z,97.65
2018-11-01T05:02:46.675Z,98.03
2018-11-01T05:03:46.688Z,97.84
2018-11-01T05:04:46.649Z,97.94
2018-11-01T05:05:46.620Z,98.13
2018-11-01T05:06:46.603Z,97.56
2018-11-01T05:07:46.582Z,97.56
2018-11-01T05:08:46.567Z,97.75
2018-11-01T05:09:46.545Z,98.03
2018-11-01T05:10:46.526Z,97.65
2018-11-01T05:11:46.506Z,97.56
2018-11-01T05:12:46.489Z,97.94
2018-11-01T05:13:46.468Z,98.51
2018-11-01T05:14:46.453Z,98.03
2018-11-01T05:15:46.434Z,98.32
2018-11-01T05:16:46.414Z,98.70
2018-11-01T05:17:46.397Z,98.36
2018-11-01T05:18:46.376Z,98.60
2018-11-01T05:19:46.361Z,98.51
2018-11-01T05:20:46.337Z,98.70
2018-11-01T05:21:46.321Z,98.79
2018-11-01T05:22:46.304Z,98.89
2018-11-01T05:23:46.282Z,98.51
2018-11-01T05:24:46.297Z,98.51
2018-11-01T05:25:46.306Z,98.22
2018-11-01T05:26:46.227Z,98.13
2018-11-01T05:27:46.206Z,97.75
2018-11-01T05:28:46.202Z,97.65
2018-11-01T05:29:46.172Z,96.98
2018-11-01T05:30:46.154Z,96.98
2018-11-01T05:31:46.138Z,96.89
2018-11-01T05:32:46.116Z,96.60
2018-11-01T05:33:46.099Z,95.75
2018-11-01T05:34:46.079Z,97.17
2018-11-01T05:35:46.058Z,97.08
2018-11-01T05:36:46.041Z,96.98
2018-11-01T05:37:46.023Z,96.60
2018-11-01T05:38:46.007Z,96.70
2018-11-01T05:39:45.983Z,97.27
2018-11-01T05:40:45.965Z,96.98
2018-11-01T05:41:45.953Z,97.27
2018-11-01T05:42:45.929Z,97.65
2018-11-01T05:43:45.914Z,97.84
2018-11-01T05:44:45.893Z,97.65
2018-11-01T05:45:45.874Z,98.03
2018-11-01T05:46:45.855Z,98.41
2018-11-01T05:47:45.836Z,98.32
2018-11-01T05:48:45.815Z,98.60
2018-11-01T05:49:45.796Z,98.70
2018-11-01T05:50:45.788Z,98.51
2018-11-01T05:51:45.764Z,98.32
2018-11-01T05:52:45.746Z,98.51
2018-11-01T05:53:45.726Z,98.32
2018-11-01T05:54:45.708Z,98.32
2018-11-01T05:55:45.687Z,98.70
2018-11-01T05:56:45.671Z,99.46
2018-11-01T05:57:45.652Z,99.37
2018-11-01T05:58:45.630Z,99.99
2018-11-01T05:59:45.652Z,99.99
2018-11-01T06:00:45.596Z,99.99
2018-11-01T06:01:45.576Z,99.99
2018-11-01T06:02:45.559Z,99.99
2018-11-01T06:03:45.540Z,99.99
2018-11-01T06:04:45.519Z,99.99
2018-11-01T06:05:45.537Z,99.99
2018-11-01T06:06:45.486Z,99.99
2018-11-01T06:07:45.463Z,99.99
2018-11-01T06:08:45.447Z,99.99
2018-11-01T06:09:45.424Z,99.99
2018-11-01T06:10:45.417Z,99.99
2018-11-01T06:11:45.389Z,99.99
2018-11-01T06:12:45.371Z,99.99
2018-11-01T06:13:45.350Z,99.99
2018-11-01T06:14:45.334Z,99.99
2018-11-01T06:15:45.312Z,99.99
2018-11-01T06:16:45.295Z,99.99
2018-11-01T06:17:45.286Z,99.99
2018-11-01T06:18:45.259Z,99.99
2018-11-01T06:19:45.236Z,99.99
2018-11-01T06:20:45.382Z,99.99
2018-11-01T06:21:45.202Z,99.99
2018-11-01T06:22:45.189Z,99.99
2018-11-01T06:23:45.164Z,99.99
2018-11-01T06:24:45.145Z,99.99
2018-11-01T06:25:45.126Z,99.99
2018-11-01T06:26:45.121Z,99.99
2018-11-01T06:27:45.089Z,99.99
2018-11-01T06:28:45.069Z,99.99
2018-11-01T06:29:45.054Z,99.99
2018-11-01T06:30:45.036Z,99.99
2018-11-01T06:31:45.016Z,99.99
2018-11-01T06:32:44.998Z,99.99
2018-11-01T06:33:44.978Z,99.99
2018-11-01T06:34:44.961Z,99.99
2018-11-01T06:35:44.939Z,99.99
2018-11-01T06:36:44.921Z,99.99
2018-11-01T06:37:44.909Z,99.99
2018-11-01T06:38:44.888Z,99.99
2018-11-01T06:39:44.904Z,99.99
2018-11-01T06:40:44.842Z,99.99
2018-11-01T06:41:44.825Z,99.99
2018-11-01T06:42:44.805Z,99.99
2018-11-01T06:43:44.786Z,99.99
2018-11-01T06:44:44.804Z,99.99
2018-11-01T06:45:44.750Z,99.99
2018-11-01T06:46:44.730Z,99.99
2018-11-01T06:47:44.712Z,99.99
2018-11-01T06:48:44.701Z,99.99
2018-11-01T06:49:44.674Z,99.99
2018-11-01T06:50:44.656Z,99.99
2018-11-01T06:51:44.636Z,99.99
2018-11-01T06:52:44.634Z,99.99
2018-11-01T06:53:44.602Z,99.99
2018-11-01T06:54:44.585Z,99.99
2018-11-01T06:55:44.561Z,99.99
2018-11-01T06:56:44.545Z,99.99
2018-11-01T06:57:44.524Z,99.99
2018-11-01T06:58:44.526Z,99.99
2018-11-01T06:59:44.488Z,99.99
2018-11-01T07:00:44.468Z,99.99
2018-11-01T07:01:44.449Z,99.99
2018-11-01T07:02:44.431Z,99.99
2018-11-01T07:03:44.410Z,99.99
2018-11-01T07:04:44.393Z,99.99
2018-11-01T07:05:44.457Z,99.99
2018-11-01T07:06:44.362Z,99.99
2018-11-01T07:07:44.335Z,99.99
2018-11-01T07:08:44.317Z,99.99
2018-11-01T07:09:44.300Z,99.99
2018-11-01T07:10:44.286Z,99.99
2018-11-01T07:11:44.263Z,99.99
2018-11-01T07:12:44.243Z,99.99
2018-11-01T07:13:44.228Z,99.99
2018-11-01T07:14:44.212Z,99.99
2018-11-01T07:15:44.189Z,99.99
2018-11-01T07:16:44.169Z,99.99
2018-11-01T07:17:44.244Z,99.99
2018-11-01T07:18:44.136Z,99.99
2018-11-01T07:19:44.114Z,99.99
2018-11-01T07:20:44.098Z,99.99
2018-11-01T07:21:44.077Z,99.99
2018-11-01T07:22:44.061Z,99.99
2018-11-01T07:23:44.041Z,99.99
2018-11-01T07:24:44.023Z,99.99
2018-11-01T07:25:44.054Z,99.27
2018-11-01T07:26:43.991Z,99.18
2018-11-01T07:27:43.976Z,99.32
2018-11-01T07:28:43.954Z,98.41
2018-11-01T07:29:43.935Z,97.99
2018-11-01T07:30:43.916Z,97.22
2018-11-01T07:31:43.901Z,96.84
2018-11-01T07:32:43.970Z,96.65
2018-11-01T07:33:43.862Z,95.89
2018-11-01T07:34:43.863Z,95.41
2018-11-01T07:35:43.827Z,95.22
2018-11-01T07:36:43.809Z,95.03
2018-11-01T07:37:43.798Z,95.12
2018-11-01T07:38:43.774Z,95.41
2018-11-01T07:39:43.824Z,95.89
2018-11-01T07:40:43.737Z,95.32
2018-11-01T07:41:43.726Z,94.60
2018-11-01T07:42:43.706Z,94.46
2018-11-01T07:43:43.689Z,93.55
2018-11-01T07:44:43.672Z,93.84
2018-11-01T07:45:43.651Z,93.84
2018-11-01T07:46:43.644Z,93.55
2018-11-01T07:47:43.623Z,92.98
2018-11-01T07:48:43.725Z,92.60
2018-11-01T07:49:43.585Z,93.84
2018-11-01T07:50:43.568Z,93.17
2018-11-01T07:51:43.551Z,92.22
2018-11-01T07:52:43.646Z,92.41
2018-11-01T07:53:43.514Z,92.22
2018-11-01T07:54:43.502Z,91.83
2018-11-01T07:55:43.485Z,92.03
2018-11-01T07:56:43.465Z,91.36
2018-11-01T07:57:43.448Z,91.83
2018-11-01T07:58:43.435Z,91.83
2018-11-01T07:59:43.414Z,90.73
2018-11-01T08:00:43.398Z,90.83
2018-11-01T08:01:43.386Z,90.64
2018-11-01T08:02:43.365Z,90.64
2018-11-01T08:03:43.347Z,89.78
2018-11-01T08:04:43.335Z,89.21
2018-11-01T08:05:43.350Z,88.92
2018-11-01T08:06:43.300Z,88.54
2018-11-01T08:07:43.293Z,88.83
2018-11-01T08:08:43.266Z,88.83
2018-11-01T08:09:43.252Z,88.35
2018-11-01T08:10:43.235Z,87.82
2018-11-01T08:11:43.240Z,87.15
2018-11-01T08:12:43.204Z,86.39
2018-11-01T08:13:43.192Z,86.35
2018-11-01T08:14:43.168Z,87.59
2018-11-01T08:15:43.157Z,88.83
2018-11-01T08:16:43.136Z,90.93
2018-11-01T08:17:43.126Z,90.93
2018-11-01T08:18:43.121Z,90.45
2018-11-01T08:19:43.245Z,90.55
2018-11-01T08:20:43.211Z,89.97
2018-11-01T08:21:43.061Z,88.92
2018-11-01T08:22:43.054Z,88.07
2018-11-01T08:23:43.031Z,88.26
2018-11-01T08:24:43.016Z,87.54
2018-11-01T08:25:43.004Z,87.15
2018-11-01T08:26:42.979Z,86.68
2018-11-01T08:27:42.980Z,87.25
2018-11-01T08:28:42.944Z,87.25
2018-11-01T08:29:42.932Z,85.86
2018-11-01T08:30:42.915Z,85.00
2018-11-01T08:31:42.902Z,85.00
2018-11-01T08:32:42.882Z,84.43
2018-11-01T08:33:42.870Z,83.33
2018-11-01T08:34:42.853Z,82.84
2018-11-01T08:35:42.838Z,82.28
2018-11-01T08:36:42.823Z,80.74
2018-11-01T08:37:42.814Z,80.74
2018-11-01T08:38:42.795Z,80.84
2018-11-01T08:39:42.780Z,80.80
2018-11-01T08:40:42.765Z,81.66
2018-11-01T08:41:42.758Z,83.62
2018-11-01T08:42:42.734Z,84.86
2018-11-01T08:43:42.726Z,85.25
2018-11-01T08:44:42.713Z,85.72
2018-11-01T08:45:42.691Z,86.20
2018-11-01T08:46:42.681Z,86.73
2018-11-01T08:47:42.658Z,87.21
2018-11-01T08:48:42.659Z,88.07
2018-11-01T08:49:42.629Z,89.12
2018-11-01T08:50:42.616Z,88.73
2018-11-01T08:51:42.601Z,88.83
2018-11-01T08:52:42.585Z,89.02
2018-11-01T08:53:42.569Z,88.07
2018-11-01T08:54:42.556Z,87.59
2018-11-01T08:55:42.542Z,87.78
2018-11-01T08:56:42.524Z,86.73
2018-11-01T08:57:42.519Z,87.40
2018-11-01T08:58:42.493Z,88.12
2018-11-01T08:59:42.484Z,88.69
2018-11-01T09:00:42.466Z,88.40
2018-11-01T09:01:42.443Z,88.98
2018-11-01T09:02:42.430Z,89.78
2018-11-01T09:03:42.417Z,89.17
2018-11-01T09:04:42.397Z,89.36
2018-11-01T09:05:42.402Z,89.45
2018-11-01T09:06:42.366Z,89.07
2018-11-01T09:07:42.563Z,89.64
2018-11-01T09:08:42.343Z,90.22
2018-11-01T09:09:42.326Z,91.36
2018-11-01T09:10:42.301Z,91.27
2018-11-01T09:11:42.285Z,91.55
2018-11-01T09:12:42.374Z,91.02
2018-11-01T09:13:42.254Z,89.83
2018-11-01T09:14:42.294Z,89.17
2018-11-01T09:15:42.225Z,89.93
2018-11-01T09:16:42.212Z,90.17
2018-11-01T09:17:42.207Z,90.55
2018-11-01T09:18:42.173Z,91.12
2018-11-01T09:19:42.157Z,89.78
2018-11-01T09:20:42.142Z,89.02
2018-11-01T09:21:42.124Z,88.45
2018-11-01T09:22:42.109Z,88.54
2018-11-01T09:23:42.092Z,88.45
2018-11-01T09:24:42.104Z,88.69
2018-11-01T09:25:42.056Z,88.69
2018-11-01T09:26:42.121Z,89.36
2018-11-01T09:27:42.022Z,89.74
2018-11-01T09:28:42.004Z,89.45
2018-11-01T09:29:41.989Z,89.78
2018-11-01T09:30:41.971Z,89.59
2018-11-01T09:31:41.962Z,89.78
2018-11-01T09:32:41.943Z,90.36
2018-11-01T09:33:41.921Z,88.73
2018-11-01T09:34:41.914Z,88.07
2018-11-01T09:35:41.978Z,87.97
2018-11-01T09:36:41.870Z,87.97
2018-11-01T09:37:41.871Z,87.78
2018-11-01T09:38:41.838Z,87.40
2018-11-01T09:39:41.824Z,87.30
2018-11-01T09:40:41.809Z,87.02
2018-11-01T09:41:41.789Z,87.59
2018-11-01T09:42:41.771Z,87.68
2018-11-01T09:43:41.757Z,88.54
2018-11-01T09:44:41.741Z,88.64
2018-11-01T09:45:41.721Z,89.69
2018-11-01T09:46:42.038Z,89.12
2018-11-01T09:47:42.123Z,89.12
2018-11-01T09:48:41.668Z,89.40
2018-11-01T09:49:41.656Z,89.50
2018-11-01T09:50:41.639Z,88.73
2018-11-01T09:51:41.617Z,89.16
2018-11-01T09:52:41.601Z,89.92
2018-11-01T09:53:41.585Z,89.45
2018-11-01T09:54:41.568Z,89.73
2018-11-01T09:55:41.681Z,89.06
2018-11-01T09:56:41.539Z,88.78
2018-11-01T09:57:41.518Z,88.68
2018-11-01T09:58:41.510Z,88.97
2018-11-01T09:59:41.486Z,88.68
2018-11-01T10:00:41.470Z,89.06
2018-11-01T10:01:41.456Z,88.30
2018-11-01T10:02:41.435Z,88.97
2018-11-01T10:03:41.424Z,88.68
2018-11-01T10:04:41.406Z,88.97
2018-11-01T10:05:41.389Z,89.16
2018-11-01T10:06:41.371Z,88.97
2018-11-01T10:07:41.352Z,88.40
2018-11-01T10:08:41.343Z,88.30
2018-11-01T10:09:41.319Z,88.11
2018-11-01T10:10:41.305Z,88.78
2018-11-01T10:11:41.284Z,88.78
2018-11-01T10:12:41.275Z,88.68
2018-11-01T10:13:41.253Z,88.49
2018-11-01T10:14:41.242Z,89.16
2018-11-01T10:15:41.397Z,88.87
2018-11-01T10:16:41.375Z,88.68
2018-11-01T10:17:41.723Z,88.59
2018-11-01T10:18:41.169Z,88.01
2018-11-01T10:19:41.152Z,87.92
2018-11-01T10:20:41.136Z,87.06
2018-11-01T10:21:41.146Z,86.77
2018-11-01T10:22:41.292Z,87.25
2018-11-01T10:23:41.092Z,87.73
2018-11-01T10:24:41.072Z,88.97
2018-11-01T10:25:41.056Z,89.25
2018-11-01T10:26:41.039Z,90.69
2018-11-01T10:27:41.116Z,91.26
2018-11-01T10:28:41.006Z,90.97
2018-11-01T10:29:40.989Z,90.02
2018-11-01T10:30:40.970Z,89.83
2018-11-01T10:31:40.952Z,90.97
2018-11-01T10:32:40.942Z,90.64
2018-11-01T10:33:40.976Z,92.12
2018-11-01T10:34:40.912Z,92.12
2018-11-01T10:35:40.891Z,92.02
2018-11-01T10:36:40.873Z,91.74
2018-11-01T10:37:40.853Z,92.12
2018-11-01T10:38:40.837Z,92.12
2018-11-01T10:39:40.822Z,92.12
2018-11-01T10:40:40.873Z,92.12
2018-11-01T10:41:40.786Z,92.60
2018-11-01T10:42:40.770Z,93.26
2018-11-01T10:43:40.754Z,93.07
2018-11-01T10:44:40.739Z,91.55
2018-11-01T10:45:40.720Z,91.83
2018-11-01T10:46:40.706Z,93.31
2018-11-01T10:47:40.701Z,93.79
2018-11-01T10:48:40.669Z,93.98
2018-11-01T10:49:40.655Z,94.07
2018-11-01T10:50:40.646Z,94.51
2018-11-01T10:51:40.622Z,94.03
2018-11-01T10:52:40.613Z,94.12
2018-11-01T10:53:40.589Z,93.46
2018-11-01T10:54:40.571Z,93.65
2018-11-01T10:55:40.556Z,93.55
2018-11-01T10:56:40.542Z,93.36
2018-11-01T10:57:40.520Z,92.02
2018-11-01T10:58:40.504Z,92.12
2018-11-01T10:59:40.489Z,92.50
2018-11-01T11:00:40.613Z,93.31
2018-11-01T11:01:40.469Z,93.36
2018-11-01T11:02:40.451Z,93.07
2018-11-01T11:03:40.427Z,93.65
2018-11-01T11:04:40.406Z,94.79
2018-11-01T11:05:40.391Z,94.79
2018-11-01T11:06:40.476Z,94.79
2018-11-01T11:07:40.353Z,95.84
2018-11-01T11:08:40.356Z,95.46
2018-11-01T11:09:40.324Z,95.27
2018-11-01T11:10:40.304Z,95.56
2018-11-01T11:11:40.301Z,95.61
2018-11-01T11:12:40.280Z,96.17
2018-11-01T11:13:40.266Z,96.17
2018-11-01T11:14:40.256Z,97.32
2018-11-01T11:15:40.224Z,97.37
2018-11-01T11:16:40.215Z,96.80
2018-11-01T11:17:40.197Z,96.13
2018-11-01T11:18:40.212Z,96.03
2018-11-01T11:19:40.170Z,97.66
2018-11-01T11:20:40.424Z,97.85
2018-11-01T11:21:40.125Z,97.99
2018-11-01T11:22:40.119Z,97.71
2018-11-01T11:23:40.094Z,98.18
2018-11-01T11:24:40.068Z,99.04
2018-11-01T11:25:40.054Z,99.57
2018-11-01T11:26:40.035Z,98.23
2018-11-01T11:27:40.019Z,98.13
2018-11-01T11:28:40.012Z,97.37
2018-11-01T11:29:39.987Z,97.85
2018-11-01T11:30:40.078Z,97.18
2018-11-01T11:31:39.958Z,96.70
2018-11-01T11:32:39.932Z,96.32
2018-11-01T11:33:39.916Z,96.03
2018-11-01T11:34:39.901Z,95.17
2018-11-01T11:35:39.916Z,94.60
2018-11-01T11:36:39.871Z,94.70
2018-11-01T11:37:39.855Z,94.51
2018-11-01T11:38:39.843Z,93.46
2018-11-01T11:39:39.841Z,93.98
2018-11-01T11:40:39.835Z,93.12
2018-11-01T11:41:39.781Z,92.16
2018-11-01T11:42:39.773Z,91.97
2018-11-01T11:43:39.747Z,93.21
2018-11-01T11:44:39.738Z,93.21
2018-11-01T11:45:39.722Z,91.97
2018-11-01T11:46:39.698Z,91.30
2018-11-01T11:47:39.695Z,91.21
2018-11-01T11:48:39.674Z,91.59
2018-11-01T11:49:39.655Z,91.78
2018-11-01T11:50:39.637Z,91.69
2018-11-01T11:51:39.636Z,91.97
2018-11-01T11:52:39.599Z,91.69
2018-11-01T11:53:39.585Z,91.69
2018-11-01T11:54:39.568Z,91.40
2018-11-01T11:55:39.547Z,91.88
2018-11-01T11:56:39.525Z,92.64
2018-11-01T11:57:39.516Z,90.73
2018-11-01T11:58:39.500Z,88.63
2018-11-01T11:59:39.475Z,88.68
2018-11-01T12:00:39.461Z,89.83
2018-11-01T12:01:39.442Z,90.06
2018-11-01T12:02:39.427Z,90.73
2018-11-01T12:03:39.414Z,90.06
2018-11-01T12:04:39.395Z,89.68
2018-11-01T12:05:39.549Z,90.31
2018-11-01T12:06:39.375Z,90.31
2018-11-01T12:07:39.342Z,89.83
2018-11-01T12:08:39.326Z,90.31
2018-11-01T12:09:39.316Z,90.50
2018-11-01T12:10:39.304Z,91.97
2018-11-01T12:11:39.286Z,92.74
2018-11-01T12:12:39.262Z,92.55
2018-11-01T12:13:39.244Z,92.36
2018-11-01T12:14:39.229Z,91.97
2018-11-01T12:15:39.213Z,90.83
2018-11-01T12:16:39.198Z,90.64
2018-11-01T12:17:39.176Z,90.73
2018-11-01T12:18:39.163Z,90.73
2018-11-01T12:19:39.144Z,89.78
2018-11-01T12:20:39.129Z,89.87
2018-11-01T12:21:39.119Z,89.78
2018-11-01T12:22:39.094Z,89.20
2018-11-01T12:23:39.080Z,89.97
2018-11-01T12:24:39.061Z,90.45
2018-11-01T12:25:39.051Z,89.68
2018-11-01T12:26:39.029Z,90.06
2018-11-01T12:27:39.012Z,90.54
2018-11-01T12:28:39.113Z,90.35
2018-11-01T12:29:38.979Z,91.21
2018-11-01T12:30:38.969Z,90.78
2018-11-01T12:31:38.951Z,89.11
2018-11-01T12:32:38.935Z,88.68
2018-11-01T12:33:38.912Z,90.01
2018-11-01T12:34:38.893Z,92.02
2018-11-01T12:35:38.960Z,92.30
2018-11-01T12:36:38.861Z,89.39
2018-11-01T12:37:38.848Z,89.63
2018-11-01T12:38:38.838Z,90.59
2018-11-01T12:39:38.812Z,91.25
2018-11-01T12:40:38.807Z,91.35
2018-11-01T12:41:38.899Z,91.25
2018-11-01T12:42:38.765Z,90.68
2018-11-01T12:43:38.746Z,89.34
2018-11-01T12:44:38.733Z,89.15
2018-11-01T12:45:38.721Z,90.11
2018-11-01T12:46:38.704Z,90.88
2018-11-01T12:47:38.686Z,90.39
2018-11-01T12:48:38.664Z,89.53
2018-11-01T12:49:38.701Z,88.68
2018-11-01T12:50:38.637Z,88.48
2018-11-01T12:51:38.615Z,88.58
2018-11-01T12:52:38.598Z,89.25
2018-11-01T12:53:38.587Z,88.96